Bridgeport Valley, California Weather observations

Data are for 10 minute period ending at time listed.
 Day   Time   Solar   Ave.   Ave.  Ave.  Vector  Max.   Baro.   Total    
  of    of     Rad.   Air    Rel.  Wind   Wind   Wind  Press.  Precip.   
Year   Day            Temp.  Hum.  Speed  Dir.   Gust                    
2014   (PST)  Kw/m2    F      %     mph   deg.    mph    mb.     in.     
-------------------------------------------------------------------------
 354    0:00   0.00   30.8    81    3.8   161     6.4   802.3    0.00 
 354    0:10   0.00   31.1    80    3.6   149     6.6   802.4    0.00 
 354    0:20   0.00   31.4    79    2.5   140     5.8   802.3    0.00 
 354    0:30   0.00   31.7    78    3.2   144     5.4   802.1    0.00 
 354    0:40   0.00   31.8    78    5.5   173     8.6   801.6    0.00 
 354    0:50   0.00   33.0    74    6.7   179    12.9   801.5    0.00 
 354    1:00   0.00   32.6    75    5.9   190    13.0   801.6    0.00 
 354    1:10   0.00   37.1    64    5.6   202    11.2   801.8    0.00 
 354    1:20   0.00   38.0    62    6.9   231    11.6   801.8    0.00 
 354    1:30   0.00   39.0    55    6.3   254    14.0   801.6    0.00 
 354    1:40   0.00   39.5    52    2.4   251     5.7   801.4    0.00 
 354    1:50   0.00   39.8    49    1.6   318     4.4   801.4    0.00 
 354    2:00   0.00   39.4    52    3.8   183     8.0   801.5    0.00 
 354    2:10   0.00   36.5    62    5.9   264    12.1   801.6    0.00 
 354    2:20   0.00   36.8    61    6.0   274    14.2   801.5    0.00 
 354    2:30   0.00   35.9    65    3.0   304     6.8   801.4    0.00 
 354    2:40   0.00   38.5    53    2.7   210     6.0   801.2    0.00 
 354    2:50   0.00   38.9    54    5.6   209    14.5   800.9    0.00 
 354    3:00   0.00   38.4    54    6.2   274    10.1   800.8    0.00 
 354    3:10   0.00   39.6    54    6.1   237    12.1   800.8    0.00 
 354    3:20   0.00   40.7    53    8.9   219    16.8   800.7    0.00 
 354    3:30   0.00   40.4    53    6.6   196    10.2   800.6    0.00 
 354    3:40   0.00   38.5    57    5.3   212    11.2   800.8    0.00 
 354    3:50   0.00   39.0    56    5.2   279    10.2   801.1    0.00 
 354    4:00   0.00   36.6    60    1.7    78     3.4   801.0    0.00 
 354    4:10   0.00   36.8    61    2.4    75     4.2   800.8    0.00 
 354    4:20   0.00   36.8    61    2.1    44     4.3   800.7    0.00 
 354    4:30   0.00   36.0    63    1.0   256     2.5   801.0    0.00 
 354    4:40   0.00   36.4    62    3.2    59     5.1   800.9    0.00 
 354    4:50   0.00   35.6    64    4.2   136     7.4   800.7    0.00 
 354    5:00   0.00   35.9    63    3.7    96     4.6   800.7    0.00 
 354    5:10   0.00   34.8    66    2.0    88     3.9   800.7    0.00 
 354    5:20   0.00   33.5    69    1.8    34     2.8   800.7    0.00 
 354    5:30   0.00   32.7    71    2.6    63     4.5   800.7    0.00 
 354    5:40   0.00   32.2    74    2.4   311     6.4   801.1    0.00 
 354    5:50   0.00   33.4    72    3.0   256     7.1   801.2    0.00 
 354    6:00   0.00   34.5    68    1.9   353     5.6   800.9    0.00 
 354    6:10   0.00   35.0    68    1.3     1     5.0   801.0    0.00 
 354    6:20   0.00   35.6    66    2.6   105     6.2   800.8    0.00 
 354    6:30   0.00   33.9    71    1.2   138     2.6   800.8    0.00 
 354    6:40   0.00   33.9    71    2.7   357     3.9   801.1    0.00 
 354    6:50   0.00   32.0    75    4.9    17     6.9   801.3    0.00 
 354    7:00   0.00   32.4    76    5.7    31     8.8   801.2    0.00 
 354    7:10   0.00   33.5    72    2.5   316     6.2   801.1    0.00 
 354    7:20   0.01   33.4    72    2.6   242     7.8   801.1    0.00 
 354    7:30   0.01   33.8    72    3.8   208     6.9   801.4    0.00 
 354    7:40   0.03   33.9    73    3.0   254     4.0   801.4    0.00 
 354    7:50   0.03   33.8    75    2.3    48     4.0   801.5    0.00 
 354    8:00   0.04   34.0    75    2.8    65     6.9   801.5    0.00 
 354    8:10   0.05   34.8    74    2.7   284     5.0   801.7    0.00 
 354    8:20   0.06   35.5    73    3.2   124     6.4   801.6    0.00 
 354    8:30   0.09   36.3    71    2.4   184     5.8   801.6    0.00 
 354    8:40   0.11   37.8    69    3.3   259     9.1   801.8    0.00 
 354    8:50   0.14   39.6    63    3.3   202     6.6   801.8    0.00 
 354    9:00   0.16   42.6    57    7.5   240    18.0   801.8    0.00 
 354    9:10   0.15   43.2    56    8.3   197    14.5   802.0    0.00 
 354    9:20   0.12   41.8    59    4.8   159    23.5   802.2    0.00 
 354    9:30   0.18   44.9    52    9.7   230    26.6   802.3    0.00 
 354    9:40   0.20   46.2    49   14.3   247    25.1   802.3    0.00 
 354    9:50   0.09   45.3    50   17.6   229    32.1   802.5    0.00 
 354   10:00   0.12   45.3    50   17.9   225    29.7   802.4    0.00 
 354   10:10   0.13   45.6    50   15.7   236    27.8   802.4    0.00 
 354   10:20   0.16   45.6    49   16.0   243    28.1   802.4    0.00 
 354   10:30   0.17   46.2    48    9.7   244    18.6   802.5    0.00 
 354   10:40   0.09   45.5    49   11.7   242    19.8   802.6    0.00 
 354   10:50   0.10   45.0    52   12.0   244    21.2   802.5    0.00 
 354   11:00   0.09   45.5    51   10.7   231    15.8   802.5    0.00 
 354   11:10   0.08   45.5    51    7.6   243    12.8   802.5    0.00 
 354   11:20   0.11   45.8    51    6.8   258    12.0   802.5    0.00 
 354   11:30   0.14   46.5    48    2.8   304     6.6   802.4    0.00 
 354   11:40   0.15   46.6    48    6.3    24    20.5   802.1    0.00 
 354   11:50   0.28   47.0    48    4.7    93    12.9   801.8    0.00 
 354   12:00   0.38   49.0    44    1.9   115     6.4   801.7    0.00 
 354   12:10   0.26   48.8    44    3.6   334     9.4   801.6    0.00 
 354   12:20   0.22   48.1    46    4.6   354     9.9   801.7    0.00 
 354   12:30   0.20   48.2    45    2.4   277     9.9   801.5    0.00 
 354   12:40   0.30   48.7    45   12.3   240    22.6   801.2    0.00 
 354   12:50   0.26   48.5    45   12.9   253    22.4   801.1    0.00 
 354   13:00   0.26   48.6    45   10.6   261    19.6   801.3    0.00 
 354   13:10   0.31   49.6    44   10.4   215    18.1   801.4    0.00 
 354   13:20   0.24   49.5    44    8.5   222    14.0   801.4    0.00 
 354   13:30   0.29   49.7    44    9.3   199    16.9   801.0    0.00 
 354   13:40   0.24   50.1    43    5.4   201    10.7   801.2    0.00 
 354   13:50   0.19   50.2    44    6.6   205    12.6   801.2    0.00 
 354   14:00   0.15   49.9    46   11.2   222    16.5   801.2    0.00 
 354   14:10   0.09   49.2    47   10.7   227    16.0   801.3    0.00 
 354   14:20   0.11   48.8    47   10.6   227    18.6   801.4    0.00 
 354   14:30   0.14   48.8    48    9.4   225    19.6   801.5    0.00 
 354   14:40   0.10   48.7    48    7.9   221    11.5   801.8    0.00 
 354   14:50   0.14   49.2    47    7.4   204    11.4   801.8    0.00 
 354   15:00   0.20   49.7    46    5.3   164     9.2   801.9    0.00 
 354   15:10   0.19   50.3    44    6.3   126    11.5   801.9    0.00 
 354   15:20   0.19   50.3    45    6.8   103    11.6   802.1    0.00 
 354   15:30   0.19   50.4    46    8.2   120    11.0   802.2    0.00 
 354   15:40   0.10   50.0    46    6.2   126    11.4   802.3    0.00 
 354   15:50   0.04   48.8    48    4.9   181     9.6   802.2    0.00 
 354   16:00   0.04   46.8    51    5.3   250     7.0   802.3    0.00 
 354   16:10   0.03   47.0    51    3.0   270     5.7   802.3    0.00 
 354   16:20   0.01   47.5    49    1.5   319     2.8   802.4    0.00 
 354   16:30   0.01   46.9    51    2.9   104     5.7   802.4    0.00 
 354   16:40   0.00   45.4    54    5.4    87     6.7   802.2    0.00 
 354   16:50   0.00   44.4    57    7.7    62    10.4   802.3    0.00 
 354   17:00   0.00   45.5    57    7.5    59    11.2   802.5    0.00 
 354   17:10   0.00   44.8    58    6.6    62    10.0   802.4    0.00 
 354   17:20   0.00   45.7    57    8.2    46    11.3   802.6    0.00 
 354   17:30   0.00   46.5    55   10.4    44    13.9   802.7    0.00 
 354   17:40   0.00   46.3    56    8.0    44    12.6   802.9    0.00 
 354   17:50   0.00   46.2    56    6.7    48    10.7   803.1    0.00 
 354   18:00   0.00   46.3    56    6.1    44    10.3   803.1    0.00 
 354   18:10   0.00   45.5    59    6.4    31     8.6   803.1    0.00 
 354   18:20   0.00   44.0    62    7.0    40     9.6   803.3    0.00 
 354   18:30   0.00   43.6    64    5.4    30     8.6   803.4    0.00 
 354   18:40   0.00   43.5    64    6.1    46     8.0   803.5    0.00 
 354   18:50   0.00   44.0    63    6.1    49     8.4   803.5    0.00 
 354   19:00   0.00   43.7    64    8.1    41    12.6   803.5    0.00 
 354   19:10   0.00   43.1    64    6.3   349    13.2   803.6    0.00 
 354   19:20   0.00   45.2    59    5.6    16    12.3   803.6    0.00 
 354   19:30   0.00   44.7    60    9.9    44    14.5   803.5    0.00 
 354   19:40   0.00   44.3    62   10.2    49    13.7   803.5    0.00 
 354   19:50   0.00   43.7    63    9.6    34    12.6   803.8    0.00 
 354   20:00   0.00   43.0    64    7.2    37    10.1   803.8    0.00 
 354   20:10   0.00   42.7    64    6.4   340    12.4   804.0    0.00 
 354   20:20   0.00   42.5    66    6.7    23    12.3   804.3    0.00 
 354   20:30   0.00   43.3    65    8.5    11    11.6   804.4    0.00 
 354   20:40   0.00   43.2    64    7.8   336    12.3   804.4    0.00 
 354   20:50   0.00   41.9    66    6.6   328     9.3   804.5    0.00 
 354   21:00   0.00   41.7    67    4.0   300    10.6   804.8    0.00 
 354   21:10   0.00   41.3    69    3.7   153     5.8   804.8    0.00 
 354   21:20   0.00   41.2    69    4.4    98     6.5   804.8    0.00 
 354   21:30   0.00   44.2    63    2.2    30     4.2   805.1    0.00 
 354   21:40   0.00   43.9    63    2.0    33     3.7   805.2    0.00 
 354   21:50   0.00   43.7    64    2.2    78     4.7   805.2    0.00 
 354   22:00   0.00   43.2    66    4.4    32     6.4   805.3    0.00 
 354   22:10   0.00   43.0    67    4.3   358     9.2   805.4    0.00 
 354   22:20   0.00   44.5    63    6.0   316    14.0   805.6    0.00 
 354   22:30   0.00   41.8    67    3.9   293     5.2   805.5    0.00 
 354   22:40   0.00   39.4    73    3.9   293     7.0   805.6    0.00 
 354   22:50   0.00   39.7    73    2.2   331     5.4   805.5    0.00 
 354   23:00   0.00   38.4    72    2.9   163     5.0   805.4    0.00 
 354   23:10   0.00   35.6    79    3.2   203     6.4   805.5    0.00 
 354   23:20   0.00   35.9    77    3.2   108     5.9   805.2    0.00 

Return to Bridgeport Valley graphs page.


Western Regional Climate Center,wrcc@dri.edu